This is the latest recevied weather packets stored in our database for station/object KE6RLG. If no packets are shown the sender has not sent any weather packets the latest 10 day(s).
| Time | Temp. | Humidity | Pressure | Rain* | Wind** | Luminosity | Snow |
|---|---|---|---|---|---|---|---|
| 1777895719 | 13.33° C | 74% | 1014.2 hPa | 0 mm | - | 0 W/m² | - |
| 1777895419 | 13.33° C | 75% | 1014.1 hPa | 0 mm | - | 0 W/m² | - |
| 1777893020 | 13.33° C | 75% | 1014.3 hPa | 0 mm | - | 0 W/m² | - |
| 1777892419 | 13.33° C | 73% | 1014.2 hPa | 0 mm | - | 0 W/m² | - |
| 1777891820 | 13.33° C | 74% | 1014.2 hPa | 0 mm | - | 0 W/m² | - |
| 1777889720 | 13.89° C | 72% | 1013.9 hPa | 0 mm | - | 0 W/m² | - |
| 1777888821 | 13.89° C | 70% | 1013.9 hPa | 0 mm | - | 0 W/m² | - |
| 1777887641 | 14.44° C | 70% | 1014.1 hPa | 0 mm | - | 0 W/m² | - |
| 1777885219 | 14.44° C | 74% | 1014.3 hPa | 0 mm | - | 0 W/m² | - |
| 1777884018 | 14.44° C | 76% | 1014.5 hPa | 0 mm | - | 0 W/m² | - |
| 1777883721 | 14.44° C | 77% | 1014.5 hPa | 0 mm | - | 0 W/m² | - |
| 1777883122 | 14.44° C | 78% | 1014.8 hPa | 0 mm | - | 0 W/m² | - |
| 1777882242 | 14.44° C | 78% | 1015.1 hPa | 0 mm | - | 0 W/m² | - |
| 1777881319 | 14.44° C | 78% | 1015 hPa | 0 mm | - | 0 W/m² | - |
| 1777880120 | 14.44° C | 78% | 1015.3 hPa | 0 mm | - | 0 W/m² | - |
| 1777878643 | 14.44° C | 77% | 1015.5 hPa | 0 mm | - | 0 W/m² | - |
| 1777877723 | 15° C | 76% | 1015.1 hPa | 0 mm | - | 0 W/m² | - |
| 1777875321 | 15° C | 74% | 1014.8 hPa | 0 mm | - | 0 W/m² | - |
| 1777872918 | 15° C | 73% | 1014.6 hPa | 0 mm | - | 0 W/m² | - |
| 1777869619 | 15° C | 73% | 1014.5 hPa | 0 mm | - | 0 W/m² | - |
| 1777867840 | 15° C | 74% | 1014.2 hPa | 0 mm | - | 0 W/m² | - |
| 1777865720 | 15.56° C | 68% | 1013.8 hPa | 0 mm | - | 0 W/m² | - |
| 1777865120 | 15.56° C | 69% | 1013.8 hPa | 0 mm | - | 0 W/m² | - |
| 1777864519 | 15° C | 69% | 1013.6 hPa | 0 mm | - | 0 W/m² | - |
| 1777863617 | 15° C | 70% | 1013.5 hPa | 0 mm | - | 0 W/m² | - |
* Rain latest hour (hover to see other rain measurements)
** Current wind speed in m/s (hover to see current wind gust speed)